Time;durP1;ratioP1;P1;durP2;ratioP2;P2;SDS_P1;SDS_P2;PMS_P1;PMS_P2;Temp;Humidity;BMP_temperature;BMP_pressure;BME280_temperature;BME280_humidity;BME280_pressure;Samples;Min_cycle;Max_cycle;Signal;HPM_P1;HPM_P2
2023/04/20 00:01:16;;;;;;;6.00;2.95;;;7.50;99.90;;;;;;4759581;30;20309;-82
2023/04/20 00:03:42;;;;;;;5.97;2.93;;;7.50;99.90;;;;;;4789877;30;20047;-82
2023/04/20 00:06:08;;;;;;;8.47;3.27;;;7.50;99.90;;;;;;4773860;30;20062;-82
2023/04/20 00:08:33;;;;;;;7.90;3.23;;;7.50;99.90;;;;;;4759929;30;20064;-81
2023/04/20 00:10:59;;;;;;;6.17;2.70;;;7.50;99.90;;;;;;4744146;30;20385;-81
2023/04/20 00:13:25;;;;;;;7.23;2.53;;;7.60;99.90;;;;;;4774179;30;20047;-82
2023/04/20 00:15:51;;;;;;;7.55;3.13;;;7.60;99.90;;;;;;4789746;30;20055;-81
2023/04/20 00:18:17;;;;;;;8.33;3.20;;;7.60;99.90;;;;;;4789623;30;20111;-82
2023/04/20 00:20:42;;;;;;;7.20;2.93;;;7.60;99.90;;;;;;4788976;30;20549;-81
2023/04/20 00:23:08;;;;;;;8.10;2.70;;;7.70;99.90;;;;;;4773780;30;20051;-81
2023/04/20 00:25:34;;;;;;;6.43;2.60;;;7.70;99.90;;;;;;4758613;30;20390;-82
2023/04/20 00:28:00;;;;;;;6.60;3.00;;;7.70;99.90;;;;;;4774328;30;20051;-81
2023/04/20 00:30:25;;;;;;;7.77;2.60;;;7.70;99.90;;;;;;4758441;30;20063;-82
2023/04/20 00:32:51;;;;;;;6.20;2.90;;;7.70;99.90;;;;;;4758628;30;20055;-82
2023/04/20 00:35:17;;;;;;;8.73;2.63;;;7.70;99.90;;;;;;4774036;30;20051;-82
2023/04/20 00:37:42;;;;;;;8.40;2.57;;;7.70;99.90;;;;;;4789334;30;20098;-81
2023/04/20 00:40:09;;;;;;;10.83;3.10;;;7.70;99.90;;;;;;4773042;30;20067;-81
2023/04/20 00:42:34;;;;;;;6.07;2.55;;;7.70;99.90;;;;;;4773728;30;20094;-81
2023/04/20 00:45:00;;;;;;;9.00;2.57;;;7.80;99.90;;;;;;4773040;30;20260;-81
2023/04/20 00:47:26;;;;;;;6.70;2.20;;;7.70;99.90;;;;;;4774022;30;20473;-82
2023/04/20 00:49:53;;;;;;;7.93;2.23;;;7.70;99.90;;;;;;4758903;30;20093;-81
2023/04/20 00:52:20;;;;;;;8.85;2.75;;;7.70;99.90;;;;;;4758024;30;20055;-81
2023/04/20 00:54:46;;;;;;;5.38;2.13;;;7.70;99.90;;;;;;4773834;30;20059;-81
2023/04/20 00:57:13;;;;;;;6.65;2.30;;;7.70;99.90;;;;;;4743655;30;20043;-81
2023/04/20 00:59:40;;;;;;;7.20;2.53;;;7.70;99.90;;;;;;4773316;30;20047;-82
2023/04/20 01:02:06;;;;;;;7.97;2.55;;;7.70;99.90;;;;;;4772746;30;20547;-82
2023/04/20 01:04:34;;;;;;;7.25;2.47;;;7.70;99.90;;;;;;4772913;30;20070;-82
2023/04/20 01:07:01;;;;;;;6.75;2.33;;;7.70;99.90;;;;;;4759050;30;20059;-82
2023/04/20 01:09:27;;;;;;;3.95;2.17;;;7.70;99.90;;;;;;4772910;30;20051;-82
2023/04/20 01:11:53;;;;;;;7.43;2.13;;;7.70;99.90;;;;;;4772813;30;20159;-82
2023/04/20 01:14:19;;;;;;;8.63;2.80;;;7.70;99.90;;;;;;4773619;30;20086;-81
2023/04/20 01:16:45;;;;;;;4.67;2.37;;;7.70;99.90;;;;;;4758053;30;20062;-82
2023/04/20 01:19:11;;;;;;;8.43;3.13;;;7.70;99.90;;;;;;4772884;30;20086;-81
2023/04/20 01:21:37;;;;;;;10.40;2.40;;;7.70;99.90;;;;;;4772787;30;20513;-81
2023/04/20 01:24:03;;;;;;;7.73;1.90;;;7.70;99.90;;;;;;4758500;30;20537;-81
2023/04/20 01:26:29;;;;;;;7.65;2.30;;;7.70;99.90;;;;;;4773417;30;20484;-83
2023/04/20 01:28:55;;;;;;;7.87;2.60;;;7.70;99.90;;;;;;4788562;30;20066;-82
2023/04/20 01:31:21;;;;;;;8.27;2.20;;;7.80;99.90;;;;;;4772639;30;20142;-81
2023/04/20 01:33:47;;;;;;;5.73;2.00;;;7.90;99.90;;;;;;4772021;30;20141;-82
2023/04/20 01:36:13;;;;;;;7.15;2.25;;;7.90;99.90;;;;;;4757929;30;20067;-81
2023/04/20 01:38:40;;;;;;;5.60;2.03;;;7.90;99.90;;;;;;4772957;30;20615;-81
2023/04/20 01:41:08;;;;;;;4.80;2.10;;;8.00;99.90;;;;;;4788594;30;20805;-81
2023/04/20 01:43:35;;;;;;;7.35;2.13;;;8.00;99.90;;;;;;4772516;30;20062;-82
2023/04/20 01:46:01;;;;;;;5.30;2.00;;;8.00;99.90;;;;;;4773239;30;20051;-82
2023/04/20 01:48:27;;;;;;;8.93;2.70;;;8.00;99.90;;;;;;4743114;30;20078;-81
2023/04/20 01:50:53;;;;;;;4.70;2.40;;;8.10;99.90;;;;;;4758464;30;20055;-81
2023/04/20 01:53:20;;;;;;;6.28;1.73;;;8.10;99.90;;;;;;4772277;30;20317;-81
2023/04/20 01:55:46;;;;;;;8.55;2.03;;;8.10;99.90;;;;;;4772178;29;20059;-81
2023/04/20 01:58:12;;;;;;;7.68;1.95;;;8.10;99.90;;;;;;4775054;30;20496;-81
2023/04/20 02:00:37;;;;;;;5.43;1.90;;;8.10;99.90;;;;;;4761295;30;20047;-82
2023/04/20 02:03:03;;;;;;;4.27;2.00;;;8.10;99.90;;;;;;4775896;30;20051;-82
2023/04/20 02:05:29;;;;;;;6.63;2.30;;;8.10;99.90;;;;;;4775949;30;20051;-81
2023/04/20 02:07:55;;;;;;;6.50;2.00;;;8.00;99.90;;;;;;4761267;30;20457;-82
2023/04/20 02:10:20;;;;;;;5.17;2.17;;;8.00;99.90;;;;;;4775627;30;20098;-81
2023/04/20 02:12:48;;;;;;;9.33;2.30;;;7.90;99.90;;;;;;4761697;30;20051;-82
2023/04/20 02:15:14;;;;;;;4.53;1.85;;;7.90;99.90;;;;;;4761287;30;20055;-82
2023/04/20 02:17:41;;;;;;;5.47;1.90;;;7.80;99.90;;;;;;4791709;30;20055;-82
2023/04/20 02:20:11;;;;;;;22.25;2.63;;;7.70;99.90;;;;;;4775703;30;20405;-81
2023/04/20 02:22:37;;;;;;;6.45;2.40;;;7.70;99.90;;;;;;4762048;30;20105;-82
2023/04/20 02:25:05;;;;;;;6.93;1.88;;;7.60;99.90;;;;;;4775449;30;20058;-81
2023/04/20 02:27:31;;;;;;;5.65;1.90;;;7.70;99.90;;;;;;4775618;30;20058;-81
2023/04/20 02:29:58;;;;;;;5.55;1.95;;;7.60;99.90;;;;;;4775567;30;20047;-81
2023/04/20 02:32:24;;;;;;;6.50;1.83;;;7.60;99.90;;;;;;4775529;30;20207;-81
2023/04/20 02:34:49;;;;;;;4.23;1.60;;;7.60;99.90;;;;;;4760742;30;20134;-82
2023/04/20 02:37:15;;;;;;;6.90;2.03;;;7.60;99.90;;;;;;4760757;30;20047;-82
2023/04/20 02:39:41;;;;;;;4.40;1.67;;;7.60;99.90;;;;;;4760597;30;20578;-82
2023/04/20 02:42:06;;;;;;;5.23;1.67;;;7.50;99.90;;;;;;4775449;30;20048;-81
2023/04/20 02:44:32;;;;;;;9.03;1.80;;;7.60;99.90;;;;;;4775365;30;20408;-82
2023/04/20 02:46:58;;;;;;;7.83;2.40;;;7.60;99.90;;;;;;4775215;30;20043;-82
2023/04/20 02:49:24;;;;;;;6.93;2.00;;;7.50;99.90;;;;;;4760538;30;20047;-81
2023/04/20 02:51:49;;;;;;;6.37;2.30;;;7.60;99.90;;;;;;4774881;30;20439;-82
2023/04/20 02:54:16;;;;;;;6.90;2.03;;;7.60;99.90;;;;;;4774892;30;20051;-81
2023/04/20 02:56:41;;;;;;;7.68;2.53;;;7.50;99.90;;;;;;4775827;30;20134;-82
2023/04/20 02:59:07;;;;;;;17.67;2.97;;;7.50;99.90;;;;;;4775845;30;20504;-82
2023/04/20 03:01:33;;;;;;;9.80;2.53;;;7.60;99.90;;;;;;4775063;30;20058;-81
2023/04/20 03:03:58;;;;;;;6.30;1.97;;;7.70;99.90;;;;;;4745648;30;20103;-81
2023/04/20 03:06:25;;;;;;;10.37;3.20;;;7.60;99.90;;;;;;4775124;30;20079;-81
2023/04/20 03:08:51;;;;;;;6.63;2.33;;;7.70;99.90;;;;;;4790694;29;20067;-81
2023/04/20 03:11:17;;;;;;;6.50;2.47;;;7.70;99.90;;;;;;4775654;30;20133;-82
2023/04/20 03:13:42;;;;;;;7.40;2.20;;;7.70;99.90;;;;;;4775341;30;20104;-82
2023/04/20 03:16:08;;;;;;;8.30;2.50;;;7.70;99.90;;;;;;4775580;30;20145;-81
2023/04/20 03:18:34;;;;;;;7.83;2.63;;;7.80;99.90;;;;;;4774786;30;20067;-81
2023/04/20 03:20:59;;;;;;;11.97;3.47;;;7.80;99.90;;;;;;4790617;30;20051;-81
2023/04/20 03:23:25;;;;;;;8.30;2.00;;;7.80;99.90;;;;;;4775371;30;20058;-81
2023/04/20 03:25:51;;;;;;;10.70;2.00;;;7.80;99.90;;;;;;4775306;30;20051;-81
2023/04/20 03:28:16;;;;;;;9.27;2.43;;;7.90;99.90;;;;;;4791231;30;20055;-81
2023/04/20 03:30:42;;;;;;;9.87;2.40;;;7.90;99.90;;;;;;4760118;30;20500;-82
2023/04/20 03:33:08;;;;;;;9.40;2.33;;;7.90;99.90;;;;;;4774390;30;20059;-82
2023/04/20 03:35:34;;;;;;;8.07;2.33;;;8.00;99.90;;;;;;4774366;30;20058;-82
2023/04/20 03:38:00;;;;;;;8.00;2.27;;;8.00;99.90;;;;;;4759997;30;20184;-82
2023/04/20 03:40:26;;;;;;;7.00;2.60;;;8.10;99.90;;;;;;4789298;30;20067;-82
2023/04/20 03:42:51;;;;;;;5.77;2.23;;;8.10;99.90;;;;;;4759595;30;20062;-82
2023/04/20 03:45:17;;;;;;;7.23;2.13;;;8.10;99.90;;;;;;4759642;30;20051;-82
2023/04/20 03:47:43;;;;;;;9.20;2.60;;;8.10;99.90;;;;;;4774302;30;20091;-82
2023/04/20 03:50:09;;;;;;;7.50;2.47;;;8.10;99.90;;;;;;4744765;30;20510;-82
2023/04/20 03:52:35;;;;;;;6.45;2.53;;;8.10;99.90;;;;;;4774238;30;20055;-81
2023/04/20 03:55:01;;;;;;;10.05;2.72;;;8.20;99.90;;;;;;4774173;30;20519;-82
2023/04/20 03:57:26;;;;;;;6.03;2.00;;;8.20;99.90;;;;;;4759143;30;20059;-82
2023/04/20 03:59:52;;;;;;;9.30;2.53;;;8.20;99.90;;;;;;4745348;30;20300;-82
2023/04/20 04:02:18;;;;;;;6.47;2.27;;;8.20;99.90;;;;;;4774103;30;20058;-82
2023/04/20 04:04:44;;;;;;;6.67;2.43;;;8.20;99.90;;;;;;4774082;30;20093;-81
2023/04/20 04:07:10;;;;;;;11.57;3.17;;;8.20;99.90;;;;;;4774756;30;20153;-82
2023/04/20 04:09:35;;;;;;;7.65;2.30;;;8.40;99.90;;;;;;4774608;30;20055;-81
2023/04/20 04:12:03;;;;;;;7.57;2.07;;;8.40;99.90;;;;;;4789614;30;20389;-82
2023/04/20 04:14:29;;;;;;;10.45;2.65;;;8.40;99.90;;;;;;4773678;30;20059;-81
2023/04/20 04:16:55;;;;;;;8.63;2.87;;;8.50;99.90;;;;;;4773717;30;20136;-82
2023/04/20 04:19:20;;;;;;;10.93;2.53;;;8.50;99.90;;;;;;4759262;30;20147;-82
2023/04/20 04:21:46;;;;;;;7.00;2.40;;;8.50;99.90;;;;;;4773308;30;20055;-82
2023/04/20 04:24:12;;;;;;;8.10;2.63;;;8.50;99.90;;;;;;4758806;30;20054;-82
2023/04/20 04:26:37;;;;;;;5.93;2.13;;;8.50;99.90;;;;;;4773607;30;20548;-80
2023/04/20 04:29:03;;;;;;;6.60;2.10;;;8.60;99.90;;;;;;4789315;30;20108;-81
2023/04/20 04:31:31;;;;;;;6.90;2.40;;;8.60;99.90;;;;;;4759520;30;20051;-80
2023/04/20 04:33:57;;;;;;;9.43;2.42;;;8.60;99.90;;;;;;4773957;30;20055;-81
2023/04/20 04:36:25;;;;;;;8.30;2.40;;;8.50;99.90;;;;;;4789275;30;20103;-80
2023/04/20 04:38:52;;;;;;;8.70;2.45;;;8.60;99.90;;;;;;4788926;30;20167;-81
2023/04/20 04:41:18;;;;;;;10.38;2.03;;;8.60;99.90;;;;;;4773280;30;20055;-81
2023/04/20 04:43:44;;;;;;;8.07;2.30;;;8.50;99.90;;;;;;4789219;30;20058;-81
2023/04/20 04:46:11;;;;;;;8.07;2.10;;;8.60;99.90;;;;;;4773141;30;20063;-80
2023/04/20 04:48:39;;;;;;;7.78;2.38;;;8.60;99.90;;;;;;4758487;30;20059;-81
2023/04/20 04:51:05;;;;;;;6.82;2.00;;;8.60;99.90;;;;;;4773516;30;20086;-80
2023/04/20 04:53:31;;;;;;;6.57;2.17;;;8.70;99.90;;;;;;4772692;30;20059;-80
2023/04/20 04:55:57;;;;;;;6.38;1.92;;;8.70;99.90;;;;;;4759185;30;20423;-81
2023/04/20 04:58:23;;;;;;;6.03;1.93;;;8.70;99.90;;;;;;4773866;30;20104;-80
2023/04/20 05:00:49;;;;;;;4.32;1.73;;;8.70;99.90;;;;;;4758681;30;20138;-80
2023/04/20 05:03:15;;;;;;;6.53;2.37;;;8.70;99.90;;;;;;4773310;30;20585;-80
2023/04/20 05:05:41;;;;;;;6.40;2.20;;;8.70;99.90;;;;;;4772983;30;20296;-80
2023/04/20 05:08:07;;;;;;;5.53;2.27;;;8.70;99.90;;;;;;4773234;30;20055;-81
2023/04/20 05:10:32;;;;;;;5.90;2.20;;;8.70;99.90;;;;;;4772910;30;20059;-81
2023/04/20 05:12:59;;;;;;;8.33;1.60;;;8.80;99.90;;;;;;4773003;30;20055;-81
2023/04/20 05:15:25;;;;;;;5.57;2.00;;;8.70;99.90;;;;;;4772937;30;20132;-80
2023/04/20 05:17:51;;;;;;;5.07;1.63;;;8.70;99.90;;;;;;4772665;30;20054;-80
2023/04/20 05:20:18;;;;;;;5.40;1.83;;;8.70;99.90;;;;;;4772835;30;20116;-80
2023/04/20 05:22:43;;;;;;;5.32;1.88;;;8.80;99.70;;;;;;4789417;30;20334;-80
2023/04/20 05:25:10;;;;;;;5.73;2.10;;;8.80;99.90;;;;;;4758204;30;20054;-81
2023/04/20 05:27:36;;;;;;;7.38;1.92;;;8.70;99.90;;;;;;4772760;30;20055;-80
2023/04/20 05:30:02;;;;;;;7.77;1.67;;;8.80;99.90;;;;;;4788509;30;20182;-81
2023/04/20 05:32:28;;;;;;;7.90;2.05;;;8.70;99.90;;;;;;4787585;30;20063;-81
2023/04/20 05:34:53;;;;;;;6.73;1.80;;;8.70;99.90;;;;;;4772296;30;20196;-82
2023/04/20 05:37:19;;;;;;;4.20;1.60;;;8.70;99.90;;;;;;4772295;30;20062;-82
2023/04/20 05:39:45;;;;;;;6.43;1.60;;;8.60;99.90;;;;;;4772319;30;20066;-81
2023/04/20 05:42:11;;;;;;;6.68;1.77;;;8.70;99.90;;;;;;4772398;30;20527;-81
2023/04/20 05:44:38;;;;;;;5.63;1.77;;;8.70;99.90;;;;;;4772209;30;20052;-81
2023/04/20 05:47:07;;;;;;;6.20;2.58;;;8.80;99.90;;;;;;4788233;30;20296;-80
2023/04/20 05:49:36;;;;;;;9.70;2.00;;;8.80;99.90;;;;;;4772811;30;20051;-80
2023/04/20 05:52:02;;;;;;;6.78;1.98;;;8.70;99.90;;;;;;4788152;30;20048;-81
2023/04/20 05:54:28;;;;;;;5.57;2.20;;;8.50;99.90;;;;;;4773122;30;20069;-81
2023/04/20 05:56:55;;;;;;;5.77;1.90;;;8.50;99.90;;;;;;4788322;30;20142;-81
2023/04/20 05:59:21;;;;;;;8.43;2.30;;;8.30;99.90;;;;;;4772319;30;20066;-82
2023/04/20 06:01:47;;;;;;;7.38;2.58;;;8.20;99.90;;;;;;4757482;30;20096;-82
2023/04/20 06:04:12;;;;;;;8.37;2.60;;;8.20;99.90;;;;;;4757589;30;20143;-82
2023/04/20 06:06:38;;;;;;;8.30;2.90;;;8.10;99.90;;;;;;4758316;30;20052;-82
2023/04/20 06:09:04;;;;;;;8.63;2.70;;;8.20;99.90;;;;;;4758176;30;20059;-82
2023/04/20 06:11:30;;;;;;;5.77;2.10;;;8.30;99.90;;;;;;4742782;30;20063;-82
2023/04/20 06:13:56;;;;;;;6.85;2.20;;;8.60;99.90;;;;;;4772347;30;20167;-83
2023/04/20 06:16:22;;;;;;;7.53;2.00;;;8.90;99.90;;;;;;4772210;30;20055;-82
2023/04/20 06:18:48;;;;;;;5.90;1.97;;;9.20;99.90;;;;;;4772241;30;20384;-83
2023/04/20 06:21:14;;;;;;;7.03;2.17;;;9.70;99.90;;;;;;4772081;30;20115;-81
2023/04/20 06:23:41;;;;;;;7.28;2.30;;;10.00;99.90;;;;;;4772211;30;20486;-81
2023/04/20 06:26:08;;;;;;;7.78;1.70;;;10.10;99.90;;;;;;4772189;30;20059;-81
2023/04/20 06:28:35;;;;;;;7.97;1.90;;;10.00;99.90;;;;;;4772135;30;20126;-81
2023/04/20 06:31:01;;;;;;;6.07;2.13;;;9.70;99.90;;;;;;4772060;30;20055;-81
2023/04/20 06:33:28;;;;;;;8.40;2.58;;;9.50;99.90;;;;;;4771906;30;20104;-80
2023/04/20 06:35:55;;;;;;;5.38;2.10;;;9.20;99.90;;;;;;4787796;30;20092;-80
2023/04/20 06:38:21;;;;;;;5.93;2.85;;;9.00;99.90;;;;;;4771469;30;20070;-80
2023/04/20 06:40:47;;;;;;;6.65;2.08;;;8.90;99.90;;;;;;4786917;30;20624;-79
2023/04/20 06:43:13;;;;;;;7.27;1.83;;;8.70;99.90;;;;;;4788952;29;20133;-80
2023/04/20 06:45:39;;;;;;;6.30;2.17;;;8.70;99.90;;;;;;4775396;30;20063;-79
2023/04/20 06:48:05;;;;;;;5.43;1.97;;;8.60;99.90;;;;;;4791605;30;20047;-81
2023/04/20 06:50:31;;;;;;;4.63;1.95;;;8.50;99.90;;;;;;4775272;30;20145;-80
2023/04/20 06:52:56;;;;;;;6.73;2.80;;;8.40;99.90;;;;;;4774894;30;20139;-80
2023/04/20 06:55:22;;;;;;;7.67;2.30;;;8.30;99.90;;;;;;4791548;30;20051;-79
2023/04/20 06:57:48;;;;;;;7.20;2.40;;;8.10;99.90;;;;;;4760396;30;20062;-80
2023/04/20 07:00:14;;;;;;;10.10;2.33;;;8.00;99.90;;;;;;4775291;30;20055;-80
2023/04/20 07:02:48;;;;;;;12.13;2.75;;;7.80;99.90;;;;;;4775129;30;20134;-80
2023/04/20 07:05:15;;;;;;;11.95;3.17;;;7.70;99.90;;;;;;4775796;30;20055;-78
2023/04/20 07:07:41;;;;;;;6.55;2.70;;;7.50;99.90;;;;;;4790882;30;20055;-75
2023/04/20 07:10:09;;;;;;;6.68;2.53;;;7.30;99.90;;;;;;4774735;30;20090;-76
2023/04/20 07:12:36;;;;;;;7.88;3.10;;;7.10;99.90;;;;;;4790744;30;20052;-74
2023/04/20 07:15:03;;;;;;;4.63;2.53;;;6.90;99.90;;;;;;4790748;30;20086;-73
2023/04/20 07:17:29;;;;;;;6.03;2.70;;;6.80;99.90;;;;;;4790980;30;20134;-73
2023/04/20 07:19:56;;;;;;;7.53;3.00;;;6.60;99.90;;;;;;4790730;30;20059;-72
2023/04/20 07:22:22;;;;;;;6.55;2.85;;;6.50;99.90;;;;;;4790711;30;20557;-73
2023/04/20 07:24:47;;;;;;;5.13;2.67;;;6.50;99.90;;;;;;4790618;30;20055;-73
2023/04/20 07:27:13;;;;;;;7.70;2.60;;;6.60;99.90;;;;;;4775051;30;20055;-74
2023/04/20 07:29:39;;;;;;;5.43;2.70;;;6.50;99.90;;;;;;4775381;30;20130;-75
2023/04/20 07:32:07;;;;;;;8.03;2.60;;;6.50;99.90;;;;;;4774660;30;20503;-74
2023/04/20 07:34:33;;;;;;;11.02;3.47;;;6.40;99.90;;;;;;4774554;30;20196;-73
2023/04/20 07:36:58;;;;;;;8.87;2.87;;;6.40;99.90;;;;;;4774866;30;20134;-73
2023/04/20 07:39:27;;;;;;;6.40;3.40;;;6.40;99.90;;;;;;4790458;30;20526;-74
2023/04/20 07:41:53;;;;;;;7.03;3.10;;;6.40;99.90;;;;;;4774782;30;20403;-75
2023/04/20 07:44:19;;;;;;;8.43;3.50;;;6.50;99.90;;;;;;4775152;30;20059;-76
2023/04/20 07:46:45;;;;;;;10.23;3.17;;;6.60;99.90;;;;;;4774264;30;20497;-75
2023/04/20 07:49:11;;;;;;;8.70;3.33;;;6.60;99.90;;;;;;4790276;30;20338;-78
2023/04/20 07:51:36;;;;;;;7.23;3.10;;;6.60;99.90;;;;;;4790208;30;20051;-76
2023/04/20 07:54:02;;;;;;;6.03;3.10;;;6.60;99.90;;;;;;4773577;29;20401;-75
2023/04/20 07:56:29;;;;;;;7.20;3.33;;;6.60;99.90;;;;;;4758962;30;20097;-77
2023/04/20 07:58:54;;;;;;;6.97;2.92;;;6.60;99.90;;;;;;4789818;30;20492;-77
2023/04/20 08:01:24;;;;;;;6.50;3.00;;;6.60;99.90;;;;;;4789484;30;20047;-78
2023/04/20 08:03:50;;;;;;;7.57;2.80;;;6.60;99.90;;;;;;4790266;30;20497;-78
2023/04/20 08:06:16;;;;;;;13.82;3.70;;;6.60;99.90;;;;;;4774094;30;20059;-78
2023/04/20 08:08:42;;;;;;;7.50;3.40;;;6.70;99.90;;;;;;4789872;30;20533;-78
2023/04/20 08:11:08;;;;;;;6.73;3.20;;;6.70;99.90;;;;;;4774045;30;20109;-78
2023/04/20 08:13:36;;;;;;;11.23;3.47;;;6.70;99.90;;;;;;4774224;30;20130;-78
2023/04/20 08:16:01;;;;;;;7.63;3.10;;;6.70;99.90;;;;;;4789804;30;20059;-78
2023/04/20 08:18:29;;;;;;;7.80;3.13;;;6.70;99.90;;;;;;4789781;30;20127;-78
2023/04/20 08:20:55;;;;;;;8.10;3.38;;;6.70;99.90;;;;;;4789722;30;20142;-78
2023/04/20 08:23:26;;;;;;;6.78;3.30;;;6.70;99.90;;;;;;4789733;30;20078;-77
2023/04/20 08:25:52;;;;;;;6.22;2.92;;;6.70;99.90;;;;;;4790210;30;20063;-77
2023/04/20 08:28:18;;;;;;;8.57;3.35;;;6.80;99.90;;;;;;4790072;30;20066;-78
2023/04/20 08:30:45;;;;;;;6.30;3.27;;;6.80;99.90;;;;;;4789580;30;20055;-78
2023/04/20 08:33:11;;;;;;;10.68;3.50;;;6.80;99.90;;;;;;4758934;30;20055;-78
2023/04/20 08:35:37;;;;;;;9.80;3.13;;;6.70;99.90;;;;;;4773557;30;20051;-78
2023/04/20 08:38:03;;;;;;;5.73;2.67;;;6.70;99.90;;;;;;4773341;30;20496;-77
2023/04/20 08:40:30;;;;;;;5.67;3.10;;;6.80;99.90;;;;;;4788943;30;20071;-78
2023/04/20 08:42:58;;;;;;;7.28;2.97;;;6.80;99.90;;;;;;4774221;30;20065;-77
2023/04/20 08:45:29;;;;;;;8.68;3.28;;;6.80;99.90;;;;;;4773336;30;20055;-78
2023/04/20 08:47:57;;;;;;;9.43;3.70;;;6.80;99.90;;;;;;4789534;30;20051;-78
2023/04/20 08:50:23;;;;;;;6.57;3.70;;;6.90;99.90;;;;;;4774109;30;20051;-79
2023/04/20 08:52:49;;;;;;;6.63;3.53;;;6.90;99.90;;;;;;4789114;30;20480;-79
2023/04/20 08:55:18;;;;;;;8.03;3.33;;;6.80;99.90;;;;;;4789656;30;20104;-78
2023/04/20 08:57:46;;;;;;;6.00;3.00;;;6.80;99.90;;;;;;4789266;30;20492;-78
2023/04/20 09:00:13;;;;;;;8.98;4.03;;;6.80;99.90;;;;;;4773943;30;20488;-78
2023/04/20 09:02:53;;;;;;;6.22;2.92;;;6.80;99.90;;;;;;4789004;30;20152;-78
2023/04/20 09:05:29;;;;;;;7.45;2.97;;;6.70;99.90;;;;;;4772793;29;20131;-78
2023/04/20 09:08:00;;;;;;;9.75;3.83;;;6.70;99.90;;;;;;4788998;30;20059;-78
2023/04/20 09:10:37;;;;;;;8.65;4.22;;;6.70;99.90;;;;;;4789133;30;20063;-77
2023/04/20 09:13:02;;;;;;;7.55;3.60;;;6.80;99.90;;;;;;4773555;30;20078;-79
2023/04/20 09:15:30;;;;;;;8.67;3.50;;;6.80;99.90;;;;;;4758522;30;20055;-79
2023/04/20 09:17:56;;;;;;;10.18;4.25;;;6.70;99.90;;;;;;4772937;30;20062;-78
2023/04/20 09:20:33;;;;;;;8.17;3.50;;;6.80;99.90;;;;;;4773128;30;20392;-80
2023/04/20 09:23:15;;;;;;;9.27;4.18;;;6.80;99.90;;;;;;4772937;30;20063;-80
2023/04/20 09:25:44;;;;;;;7.47;3.42;;;6.90;99.90;;;;;;4787557;30;20055;-80
2023/04/20 09:28:12;;;;;;;7.47;4.13;;;7.00;99.90;;;;;;4788598;30;20067;-79
2023/04/20 09:30:38;;;;;;;6.70;3.47;;;7.10;99.90;;;;;;4788594;30;20047;-80
2023/04/20 09:33:07;;;;;;;11.98;3.88;;;7.20;99.90;;;;;;4772607;30;20055;-80
2023/04/20 09:35:33;;;;;;;8.25;3.47;;;7.30;99.90;;;;;;4772706;30;20055;-80
2023/04/20 09:37:59;;;;;;;8.23;4.05;;;7.40;99.90;;;;;;4788190;30;20055;-79
2023/04/20 09:40:26;;;;;;;10.10;3.87;;;7.30;99.90;;;;;;4772247;30;20059;-80
2023/04/20 09:42:59;;;;;;;7.43;4.13;;;7.30;99.90;;;;;;4788439;30;20055;-79
2023/04/20 09:45:26;;;;;;;8.93;3.97;;;7.40;99.90;;;;;;4773400;30;20070;-80
2023/04/20 09:47:52;;;;;;;10.93;4.43;;;7.40;99.90;;;;;;4773362;30;20097;-80
2023/04/20 09:50:20;;;;;;;6.75;3.65;;;7.60;99.90;;;;;;4772382;30;20492;-79
2023/04/20 09:52:50;;;;;;;7.57;4.25;;;7.70;99.90;;;;;;4788370;30;20090;-79
2023/04/20 09:55:15;;;;;;;11.43;3.80;;;7.80;99.90;;;;;;4788623;30;20588;-80
2023/04/20 09:57:43;;;;;;;6.57;3.70;;;7.90;99.90;;;;;;4789107;30;20059;-80
2023/04/20 10:00:09;;;;;;;7.60;3.90;;;7.90;99.90;;;;;;4772506;30;20063;-80
2023/04/20 10:02:36;;;;;;;6.82;3.45;;;7.90;99.90;;;;;;4772459;30;20059;-80
2023/04/20 10:05:02;;;;;;;7.68;3.90;;;7.80;99.90;;;;;;4788798;30;20134;-80
2023/04/20 10:07:30;;;;;;;7.85;3.92;;;7.80;99.90;;;;;;4772441;30;20135;-81
2023/04/20 10:10:25;;;;;;;8.32;3.83;;;7.80;99.90;;;;;;4788495;30;20051;-80
2023/04/20 10:12:53;;;;;;;6.65;3.53;;;7.90;99.90;;;;;;4757142;30;20099;-80
2023/04/20 10:15:23;;;;;;;7.07;3.80;;;7.90;99.90;;;;;;4772664;30;20063;-80
2023/04/20 10:17:49;;;;;;;7.30;4.00;;;7.90;99.90;;;;;;4773188;30;20484;-80
2023/04/20 10:20:22;;;;;;;11.38;4.55;;;7.90;99.90;;;;;;4775936;30;20072;-80
2023/04/20 10:22:50;;;;;;;7.15;3.33;;;7.90;99.90;;;;;;4776604;30;20393;-80
2023/04/20 10:25:19;;;;;;;8.35;4.35;;;8.00;99.90;;;;;;4775874;30;20062;-80
2023/04/20 10:27:56;;;;;;;7.53;3.78;;;8.10;99.90;;;;;;4791570;30;20057;-81
2023/04/20 10:30:23;;;;;;;9.25;4.05;;;8.10;99.90;;;;;;4791639;30;20211;-80
2023/04/20 10:32:49;;;;;;;7.45;4.30;;;8.00;99.90;;;;;;4791634;30;20465;-80
2023/04/20 10:35:15;;;;;;;14.02;5.00;;;8.00;99.90;;;;;;4792022;30;20467;-79
2023/04/20 10:37:49;;;;;;;7.33;3.70;;;8.10;99.90;;;;;;4791439;30;20135;-81
2023/04/20 10:40:16;;;;;;;8.32;4.18;;;8.10;99.90;;;;;;4791984;30;20453;-81
2023/04/20 10:42:45;;;;;;;8.30;4.32;;;8.20;99.90;;;;;;4775319;30;20116;-81
2023/04/20 10:45:11;;;;;;;8.32;4.32;;;8.00;99.90;;;;;;4775218;30;20101;-81
2023/04/20 10:47:39;;;;;;;7.70;3.72;;;8.10;99.90;;;;;;4792102;30;20047;-81
2023/04/20 10:50:07;;;;;;;8.40;3.53;;;8.10;99.90;;;;;;4791296;30;20051;-80
2023/04/20 10:52:37;;;;;;;7.95;4.00;;;8.10;99.90;;;;;;4775314;30;20051;-81
2023/04/20 10:55:04;;;;;;;6.65;3.95;;;8.00;99.90;;;;;;4791483;30;20058;-81
2023/04/20 10:57:29;;;;;;;9.85;4.28;;;8.00;99.90;;;;;;4791190;30;20138;-79
2023/04/20 10:59:55;;;;;;;6.63;3.67;;;8.00;99.90;;;;;;4791148;30;20137;-81
2023/04/20 11:02:21;;;;;;;8.50;4.23;;;8.00;99.90;;;;;;4791122;30;20216;-80
2023/04/20 11:04:47;;;;;;;7.70;3.80;;;8.00;99.90;;;;;;4791525;30;20115;-81
2023/04/20 11:07:12;;;;;;;8.13;3.73;;;7.90;99.90;;;;;;4791454;30;20074;-81
2023/04/20 11:09:39;;;;;;;5.70;3.33;;;7.90;99.90;;;;;;4774819;30;20057;-81
2023/04/20 11:12:07;;;;;;;9.02;3.63;;;8.10;99.90;;;;;;4790928;30;20055;-81
2023/04/20 11:14:39;;;;;;;6.85;3.78;;;8.20;99.90;;;;;;4774697;30;20081;-80
2023/04/20 11:17:05;;;;;;;8.10;4.20;;;8.20;99.90;;;;;;4774715;30;20142;-79
2023/04/20 11:19:33;;;;;;;10.18;3.88;;;8.10;99.90;;;;;;4775169;30;20059;-80
2023/04/20 11:22:00;;;;;;;7.63;3.65;;;8.20;99.90;;;;;;4775276;30;20105;-80
2023/04/20 11:24:33;;;;;;;9.07;4.03;;;8.20;99.90;;;;;;4790679;30;20051;-80
2023/04/20 11:27:00;;;;;;;5.93;3.55;;;8.20;99.90;;;;;;4775261;30;20408;-80
2023/04/20 11:29:37;;;;;;;6.53;3.60;;;8.30;99.90;;;;;;4790476;29;20043;-81
2023/04/20 11:32:10;;;;;;;10.13;4.28;;;8.30;99.90;;;;;;4774864;30;20055;-81
2023/04/20 11:34:37;;;;;;;6.47;3.95;;;8.30;99.90;;;;;;4774357;30;20044;-81
2023/04/20 11:37:08;;;;;;;6.85;4.07;;;8.30;99.90;;;;;;4760255;30;20366;-81
2023/04/20 11:39:35;;;;;;;7.28;3.88;;;8.30;99.90;;;;;;4774324;30;20052;-80
2023/04/20 11:42:01;;;;;;;6.93;4.57;;;8.40;99.90;;;;;;4790326;30;20134;-81
2023/04/20 11:44:27;;;;;;;6.90;4.25;;;8.40;99.90;;;;;;4790367;30;20104;-81
2023/04/20 11:46:55;;;;;;;8.77;4.13;;;8.50;99.90;;;;;;4775192;30;20055;-81
2023/04/20 11:49:26;;;;;;;6.88;4.25;;;8.60;99.90;;;;;;4790434;30;20502;-82
2023/04/20 11:51:52;;;;;;;8.20;4.80;;;8.60;99.90;;;;;;4774787;30;20052;-81
2023/04/20 11:54:18;;;;;;;9.15;4.45;;;8.60;99.90;;;;;;4774070;30;20051;-81
2023/04/20 11:56:44;;;;;;;6.93;4.50;;;8.60;99.90;;;;;;4775044;30;20051;-81
2023/04/20 11:59:12;;;;;;;6.80;4.18;;;8.50;99.90;;;;;;4790083;30;20104;-81
2023/04/20 12:01:39;;;;;;;8.50;4.22;;;8.50;99.90;;;;;;4790045;30;20059;-82
2023/04/20 12:04:05;;;;;;;10.43;4.93;;;8.50;99.90;;;;;;4789968;30;20051;-82
2023/04/20 12:06:31;;;;;;;7.37;4.70;;;8.60;99.90;;;;;;4790774;30;20103;-82
2023/04/20 12:08:57;;;;;;;8.73;4.93;;;8.60;99.90;;;;;;4774072;30;20936;-80
2023/04/20 12:11:23;;;;;;;8.17;5.30;;;8.70;99.90;;;;;;4789875;30;20141;-80
2023/04/20 12:13:49;;;;;;;7.47;4.50;;;8.80;99.90;;;;;;4773788;30;20059;-82
2023/04/20 12:16:15;;;;;;;9.27;4.77;;;8.90;99.90;;;;;;4789784;30;20055;-80
2023/04/20 12:18:41;;;;;;;7.63;5.00;;;9.00;99.90;;;;;;4773878;30;20059;-81
2023/04/20 12:21:07;;;;;;;8.80;5.22;;;9.20;99.90;;;;;;4759149;30;20651;-80
2023/04/20 12:23:35;;;;;;;13.33;5.73;;;9.30;99.90;;;;;;4789663;30;20051;-81
2023/04/20 12:26:02;;;;;;;7.43;4.80;;;9.40;99.90;;;;;;4774542;30;20062;-81
2023/04/20 12:28:29;;;;;;;9.35;5.20;;;9.40;99.90;;;;;;4773984;30;20300;-82
2023/04/20 12:30:54;;;;;;;8.53;5.20;;;9.40;99.90;;;;;;4773620;30;20108;-81
2023/04/20 12:33:20;;;;;;;9.87;5.57;;;9.40;99.90;;;;;;4789930;30;20305;-81
2023/04/20 12:35:46;;;;;;;9.90;5.97;;;9.40;99.90;;;;;;4789513;30;20082;-82
2023/04/20 12:38:11;;;;;;;9.50;5.47;;;9.30;99.90;;;;;;4789440;30;20396;-82
2023/04/20 12:40:37;;;;;;;9.73;5.00;;;9.30;99.90;;;;;;4789939;29;20496;-82
2023/04/20 12:43:03;;;;;;;8.63;5.47;;;9.30;99.90;;;;;;4789383;30;20055;-82
2023/04/20 12:45:29;;;;;;;11.60;6.17;;;9.20;99.90;;;;;;4789357;30;20819;-81
2023/04/20 12:47:55;;;;;;;9.00;5.90;;;9.20;99.90;;;;;;4773364;30;20059;-82
2023/04/20 12:50:21;;;;;;;9.37;6.00;;;9.20;99.90;;;;;;4789212;30;20054;-81
2023/04/20 12:52:47;;;;;;;10.77;6.13;;;9.20;99.90;;;;;;4789080;30;20131;-82